Werbung

MCS über Istanbul

Alles zu (Un)wetter und Klima, übriges Europa und weltweit
Antworten
Benutzeravatar
Joachim
Beiträge: 2780
Registriert: Do 16. Aug 2001, 10:53
Geschlecht: männlich
Wohnort: 8330 Pfäffikon/ZH
Hat sich bedankt: 53 Mal
Danksagung erhalten: 593 Mal
Kontaktdaten:

MCS über Istanbul

Beitrag von Joachim » Do 7. Mai 2015, 21:59

Hoi zäme

nette Gewitter heute Abend über Nordgriechenland und über Westtürkei...IRcoloured SAT (cloudtop<-65°) von 20 Uhr mit SFUK-Blitzen:

Bild

Und der Flug_Met von LTBA hat was zum Erzählen:

TAF: LTBA 071640Z 0718/0824 VRB02KT 7000 -SHRA SCT025CB BKN030 TEMPO 0718/0720 34017G32KT 1200 +TSRA BKN017CB BKN025 BECMG 0721/0724 36012KT SCT025TCU BKN035 TEMPO 0803/0807 4000 -TSRA SCT017CB BKN025 BECMG 0809/0812 36015G27KT SCT035 BKN090 BECMG 0812/0815 CAVOK

Grüsslis

Joachim

Antworten